GB-0573 weather

CLOSED RAF Skaebrae Air Base
Orkney, Scotland, United Kingdom

Public forecast

Using degrees Celsius for public forecast. Weather courtesy of forecast.io.

Closest aviation weather report (METAR) to RAF Skaebrae Air Base

Closest report is Kirkwall Airport, 12.9 nm (24.0 km) ESE. Retrieved 2019/12/16 12:20 UTC (17 minutes ago):

EGPA 161220Z 16002KT 9999 FEW023CB 04/01 Q0989

Closest aviation forecast (TAF) to RAF Skaebrae Air Base

Closest forecast is RAF Lossiemouth, 81.6 nm (151.1 km) S. Retrieved 2019/12/16 15:00 UTC (0 seconds ago):

TAF EGQS 161355Z 1615/1709 16005KT 9999 FEW040 PROB40 TEMPO 1615/1620 7000 -RA SCT020 PROB30 1620/1703 3000 MIFG BR TEMPO 1703/1709 6000 -RADZ SCT010 BKN020 PROB30 TEMPO 1703/1709 3000 RADZ BR SCT006 BKN015